Time;durP1;ratioP1;P1;durP2;ratioP2;P2;SDS_P1;SDS_P2;PMS_P1;PMS_P2;Temp;Humidity;BMP_temperature;BMP_pressure;BME280_temperature;BME280_humidity;BME280_pressure;Samples;Min_cycle;Max_cycle;Signal;HPM_P1;HPM_P2
2023/03/29 00:00:59;;;;;;;5.70;5.20;;;;;;;-2.73;77.64;97441.74;110628;1241;59733;-67
2023/03/29 00:03:30;;;;;;;5.80;4.70;;;;;;;-2.75;77.85;97441.28;110554;1240;59900;-67
2023/03/29 00:06:01;;;;;;;;;;;;;;;-2.76;77.95;97443.70;110185;1243;71980;-67
2023/03/29 00:08:36;;;;;;;6.20;4.40;;;;;;;-2.76;78.21;97451.05;110161;1243;69420;-67
2023/03/29 00:11:07;;;;;;;5.80;4.90;;;;;;;-2.73;78.02;97451.13;110171;1243;68530;-67
2023/03/29 00:13:38;;;;;;;7.60;5.20;;;;;;;-2.68;78.07;97451.39;110225;1240;60185;-67
2023/03/29 00:16:09;;;;;;;5.90;4.90;;;;;;;-2.63;77.88;97453.33;110286;1241;59633;-68
2023/03/29 00:18:38;;;;;;;6.40;4.80;;;;;;;-2.62;78.26;97451.44;110222;1241;71337;-68
2023/03/29 00:21:12;;;;;;;7.00;5.60;;;;;;;-2.59;78.25;97459.57;110304;1241;68553;-69
2023/03/29 00:23:41;;;;;;;;;;;;;;;-2.56;78.15;97456.42;110212;1242;69252;-67
2023/03/29 00:26:11;;;;;;;6.90;5.10;;;;;;;-2.52;78.13;97455.85;110173;1242;59744;-68
2023/03/29 00:28:40;;;;;;;7.40;4.70;;;;;;;-2.52;78.47;97458.06;110201;1242;59651;-67
2023/03/29 00:31:13;;;;;;;5.70;5.10;;;;;;;-2.51;78.63;97452.77;110264;1238;71372;-67
2023/03/29 00:33:45;;;;;;;7.10;5.00;;;;;;;-2.46;78.14;97458.45;110591;1241;68497;-68
2023/03/29 00:36:17;;;;;;;6.80;5.40;;;;;;;-2.45;78.44;97454.00;110621;1238;67447;-68
2023/03/29 00:38:49;;;;;;;7.00;5.10;;;;;;;-2.46;78.75;97456.23;110629;1240;59682;-68
2023/03/29 00:41:20;;;;;;;6.20;5.30;;;;;;;-2.46;79.37;97452.83;110625;1241;59998;-68
2023/03/29 00:43:51;;;;;;;6.10;5.30;;;;;;;-2.45;79.12;97450.08;110613;1240;70623;-68
2023/03/29 00:46:23;;;;;;;6.50;4.80;;;;;;;-2.44;79.05;97452.95;110195;1242;69246;-68
2023/03/29 00:48:57;;;;;;;6.10;5.20;;;;;;;-2.43;79.05;97449.86;110196;1243;69796;-68
2023/03/29 00:51:31;;;;;;;6.20;5.50;;;;;;;-2.41;79.12;97450.85;110161;1240;59696;-68
2023/03/29 00:54:04;;;;;;;5.10;4.40;;;;;;;-2.41;79.06;97449.98;110496;1241;59685;-67
2023/03/29 00:56:42;;;;;;;6.50;5.70;;;;;;;-2.42;79.68;97452.55;110245;1241;71392;-67
2023/03/29 00:59:17;;;;;;;7.40;5.50;;;;;;;-2.41;79.38;97452.21;110192;1242;69168;-67
2023/03/29 01:01:56;;;;;;;6.30;5.30;;;;;;;-2.41;79.20;97449.65;110123;1242;69289;-67
2023/03/29 01:04:41;;;;;;;6.50;5.60;;;;;;;-2.40;79.24;97450.84;110205;1242;59755;-67
2023/03/29 01:07:27;;;;;;;5.10;4.60;;;;;;;-2.42;79.38;97451.88;110290;1242;59730;-67
2023/03/29 01:10:08;;;;;;;6.50;5.30;;;;;;;-2.39;79.36;97458.83;110599;1241;71407;-67
2023/03/29 01:12:48;;;;;;;7.10;4.70;;;;;;;-2.42;79.29;97460.41;110247;1242;69673;-67
2023/03/29 01:15:24;;;;;;;7.20;5.30;;;;;;;-2.43;79.35;97459.77;110276;1242;69205;-67
2023/03/29 01:17:56;;;;;;;7.00;4.40;;;;;;;-2.44;79.27;97464.39;110345;1240;59760;-67
2023/03/29 01:20:33;;;;;;;5.50;4.90;;;;;;;-2.48;79.44;97468.39;110206;1242;59622;-67
2023/03/29 01:23:36;;;;;;;7.30;5.40;;;;;;;-2.47;79.23;97465.31;109991;1240;71260;-67
2023/03/29 01:26:26;;;;;;;5.60;4.60;;;;;;;-2.48;79.22;97464.83;110187;1242;69268;-67
2023/03/29 01:29:09;;;;;;;5.80;4.60;;;;;;;-2.49;79.14;97465.02;110227;1240;69206;-67
2023/03/29 01:31:49;;;;;;;3.80;3.30;;;;;;;-2.49;79.32;97462.97;110147;1242;59674;-69
2023/03/29 01:34:44;;;;;;;6.40;4.90;;;;;;;-2.49;79.04;97461.08;110123;1241;59714;-68
2023/03/29 01:37:20;;;;;;;5.40;4.70;;;;;;;-2.46;78.74;97462.20;110187;1240;71470;-68
2023/03/29 01:39:51;;;;;;;5.10;4.10;;;;;;;-2.50;79.06;97465.54;110210;1245;68809;-68
2023/03/29 01:42:41;;;;;;;8.60;4.80;;;;;;;-2.49;78.80;97467.07;110321;1241;69285;-69
2023/03/29 01:45:30;;;;;;;7.10;4.80;;;;;;;-2.48;78.64;97464.98;110335;1241;59696;-68
2023/03/29 01:48:31;;;;;;;5.00;4.40;;;;;;;-2.47;78.37;97466.15;110309;1241;59741;-68
2023/03/29 01:51:04;;;;;;;;;;;;;;;-2.45;78.32;97469.02;110188;1242;70841;-68
2023/03/29 01:53:55;;;;;;;7.70;5.00;;;;;;;-2.47;78.29;97466.33;110232;1242;69234;-68
2023/03/29 01:56:33;;;;;;;5.00;3.90;;;;;;;-2.50;77.61;97468.09;110316;1241;69292;-69
2023/03/29 01:59:10;;;;;;;6.30;5.00;;;;;;;-2.48;77.48;97464.30;110102;1243;59773;-68
2023/03/29 02:01:47;;;;;;;7.30;5.20;;;;;;;-2.47;77.62;97465.48;110314;1241;59659;-68
2023/03/29 02:04:26;;;;;;;6.10;5.20;;;;;;;-2.45;77.00;97464.75;110284;1241;72116;-68
2023/03/29 02:06:59;;;;;;;9.40;5.10;;;;;;;-2.45;76.65;97459.29;110625;1240;68504;-69
2023/03/29 02:09:31;;;;;;;6.40;5.00;;;;;;;-2.44;76.74;97463.70;110360;1239;68944;-70
2023/03/29 02:12:07;;;;;;;5.60;4.80;;;;;;;-2.43;76.44;97456.52;110635;1241;59660;-69
2023/03/29 02:14:38;;;;;;;5.70;4.70;;;;;;;-2.40;76.04;97456.45;110507;1242;60130;-68
2023/03/29 02:17:14;;;;;;;6.20;4.90;;;;;;;-2.39;75.74;97457.45;110285;1242;71456;-68
2023/03/29 02:19:52;;;;;;;6.20;5.20;;;;;;;-2.39;75.39;97459.69;110118;1241;68750;-68
2023/03/29 02:22:27;;;;;;;7.50;5.20;;;;;;;-2.40;75.35;97459.89;110205;1242;69857;-69
2023/03/29 02:25:00;;;;;;;5.40;4.90;;;;;;;-2.44;75.08;97463.19;110192;1240;59696;-69
2023/03/29 02:27:30;;;;;;;5.10;4.60;;;;;;;-2.44;75.21;97465.08;110333;1238;60056;-68
2023/03/29 02:30:05;;;;;;;4.90;4.40;;;;;;;-2.43;75.10;97463.19;110325;1242;70861;-68
2023/03/29 02:32:58;;;;;;;6.10;5.40;;;;;;;-2.46;74.59;97460.33;110242;1244;69223;-68
2023/03/29 02:35:39;;;;;;;4.70;4.00;;;;;;;-2.46;74.72;97459.99;110338;1242;69234;-69
2023/03/29 02:38:10;;;;;;;5.10;4.40;;;;;;;-2.49;74.69;97461.42;110378;1241;59804;-68
2023/03/29 02:40:42;;;;;;;6.30;4.40;;;;;;;-2.50;74.99;97460.41;110287;1238;59688;-68
2023/03/29 02:43:13;;;;;;;;;;;;;;;-2.52;74.80;97463.37;110484;1240;71055;-68
2023/03/29 02:45:44;;;;;;;5.60;5.10;;;;;;;-2.58;75.04;97461.77;110377;1241;68471;-68
2023/03/29 02:48:17;;;;;;;6.60;4.40;;;;;;;-2.59;74.94;97462.80;110297;1238;69304;-68
2023/03/29 02:50:52;;;;;;;5.90;5.40;;;;;;;-2.59;74.99;97468.27;110331;1242;59670;-69
2023/03/29 02:53:28;;;;;;;6.50;5.90;;;;;;;-2.61;75.15;97466.09;110613;1238;59702;-69
2023/03/29 02:56:01;;;;;;;7.00;5.50;;;;;;;-2.62;75.49;97464.06;110603;1238;71221;-69
2023/03/29 02:58:31;;;;;;;6.20;4.50;;;;;;;-2.68;75.84;97466.41;110188;1241;69224;-69
2023/03/29 03:01:06;;;;;;;6.60;4.90;;;;;;;-2.69;76.05;97461.81;110476;1238;69222;-69
2023/03/29 03:03:38;;;;;;;5.20;4.70;;;;;;;-2.72;76.10;97464.27;110495;1238;59681;-69
2023/03/29 03:06:08;;;;;;;6.40;4.50;;;;;;;-2.71;76.14;97468.17;110452;1241;59643;-69
2023/03/29 03:08:39;;;;;;;5.60;5.10;;;;;;;-2.70;76.27;97468.48;109995;1240;71500;-69
2023/03/29 03:11:11;;;;;;;6.90;5.30;;;;;;;-2.70;76.72;97468.98;110055;1240;68343;-69
2023/03/29 03:13:42;;;;;;;5.90;4.40;;;;;;;-2.71;76.86;97466.29;109903;1240;68370;-68
2023/03/29 03:16:12;;;;;;;;;;;;;;;-2.75;77.22;97466.88;109914;1240;59719;-68
2023/03/29 03:18:44;;;;;;;10.20;5.80;;;;;;;-2.78;77.72;97470.00;109846;1240;59743;-68
2023/03/29 03:21:14;;;;;;;6.50;5.80;;;;;;;-2.87;78.37;97469.14;110166;1242;71350;-68
2023/03/29 03:23:46;;;;;;;7.40;5.90;;;;;;;-2.96;78.92;97467.44;110433;1238;68478;-68
2023/03/29 03:26:16;;;;;;;8.30;7.10;;;;;;;-3.02;79.37;97465.33;110229;1242;69253;-68
2023/03/29 03:28:48;;;;;;;6.80;5.70;;;;;;;-3.11;80.13;97463.95;110240;1242;59666;-68
2023/03/29 03:31:40;;;;;;;;;;;;;;;-3.14;80.56;97467.25;110098;1240;59660;-68
2023/03/29 03:34:14;;;;;;;8.50;6.60;;;;;;;-3.14;81.03;97469.98;110227;1242;71953;-67
2023/03/29 03:36:56;;;;;;;8.40;7.00;;;;;;;-3.14;82.39;97476.96;110168;1242;70005;-68
2023/03/29 03:39:26;;;;;;;7.60;6.40;;;;;;;-3.20;83.23;97480.81;110245;1242;67688;-68
2023/03/29 03:41:57;;;;;;;8.10;7.30;;;;;;;-3.27;84.13;97485.52;110108;1243;59679;-68
2023/03/29 03:44:28;;;;;;;11.30;6.80;;;;;;;-3.29;83.92;97488.65;110152;1240;59695;-68
2023/03/29 03:47:13;;;;;;;8.70;6.60;;;;;;;-3.29;84.29;97488.30;110157;1240;71477;-68
2023/03/29 03:49:43;;;;;;;6.70;5.10;;;;;;;-3.32;84.61;97493.64;110235;1241;68999;-68
2023/03/29 03:52:14;;;;;;;7.10;6.20;;;;;;;-3.31;84.50;97494.80;110096;1240;69331;-68
2023/03/29 03:54:45;;;;;;;;;;;;;;;-3.29;84.33;97499.72;110141;1242;59686;-69
2023/03/29 03:57:36;;;;;;;7.10;6.10;;;;;;;-3.32;84.85;97502.84;110236;1242;59693;-68
2023/03/29 04:00:18;;;;;;;7.50;6.70;;;;;;;-3.29;83.80;97504.48;110501;1240;71374;-68
2023/03/29 04:03:01;;;;;;;8.60;7.40;;;;;;;-3.30;83.91;97506.05;110165;1242;68835;-68
2023/03/29 04:05:31;;;;;;;7.00;5.80;;;;;;;-3.26;83.77;97509.73;110206;1238;68483;-68
2023/03/29 04:08:02;;;;;;;9.00;7.60;;;;;;;-3.30;83.63;97513.72;110121;1241;59684;-68
2023/03/29 04:11:03;;;;;;;8.60;6.70;;;;;;;-3.34;83.36;97512.58;110339;1240;59644;-69
2023/03/29 04:13:38;;;;;;;9.40;6.40;;;;;;;-3.41;83.34;97516.61;110185;1242;70512;-69
2023/03/29 04:16:34;;;;;;;7.90;6.10;;;;;;;-3.46;83.44;97516.17;109967;1241;69806;-69
2023/03/29 04:19:16;;;;;;;5.90;5.00;;;;;;;-3.49;83.39;97523.89;110125;1241;68305;-70
2023/03/29 04:21:48;;;;;;;7.50;6.60;;;;;;;-3.57;83.14;97521.80;110031;1244;59679;-69
2023/03/29 04:24:18;;;;;;;7.00;6.30;;;;;;;-3.56;83.21;97525.02;109909;1240;59731;-69
2023/03/29 04:27:03;;;;;;;8.30;6.40;;;;;;;-3.55;83.20;97526.37;109996;1240;71952;-69
2023/03/29 04:29:33;;;;;;;8.10;5.70;;;;;;;-3.53;82.56;97528.73;110201;1241;69468;-68
2023/03/29 04:32:12;;;;;;;7.10;6.40;;;;;;;-3.51;82.53;97523.58;110442;1241;70343;-69
2023/03/29 04:34:53;;;;;;;6.80;6.00;;;;;;;-3.48;82.35;97534.79;110344;1240;59665;-69
2023/03/29 04:37:23;;;;;;;8.00;5.60;;;;;;;-3.48;81.90;97536.14;110180;1244;59688;-69
2023/03/29 04:39:54;;;;;;;8.40;6.30;;;;;;;-3.42;81.09;97531.29;110259;1242;71465;-68
2023/03/29 04:42:24;;;;;;;9.20;6.70;;;;;;;-3.39;80.93;97536.85;110295;1240;68896;-68
2023/03/29 04:44:54;;;;;;;7.20;6.20;;;;;;;-3.38;80.41;97542.29;110307;1241;69268;-68
2023/03/29 04:47:31;;;;;;;6.00;4.70;;;;;;;-3.37;79.50;97545.36;110384;1240;59769;-69
2023/03/29 04:50:10;;;;;;;7.60;5.10;;;;;;;-3.33;79.28;97546.48;110150;1243;59660;-70
2023/03/29 04:52:44;;;;;;;9.20;5.80;;;;;;;-3.26;79.00;97553.02;110123;1240;72355;-71
2023/03/29 04:55:13;;;;;;;7.70;5.60;;;;;;;-3.21;78.49;97558.92;110167;1243;69813;-68
2023/03/29 04:57:52;;;;;;;6.00;5.40;;;;;;;-3.17;77.91;97560.05;110242;1240;69544;-68
2023/03/29 05:00:30;;;;;;;6.20;4.20;;;;;;;-3.14;77.45;97565.95;110218;1242;59708;-69
2023/03/29 05:03:06;;;;;;;5.80;5.10;;;;;;;-3.12;77.29;97570.00;110320;1242;59665;-67
2023/03/29 05:05:40;;;;;;;6.90;4.90;;;;;;;-3.19;77.01;97569.62;110140;1240;71713;-68
2023/03/29 05:08:09;;;;;;;5.00;4.50;;;;;;;-3.13;76.67;97574.46;110257;1242;69263;-68
2023/03/29 05:10:53;;;;;;;6.30;5.50;;;;;;;-3.11;76.28;97579.20;110130;1244;69927;-68
2023/03/29 05:13:23;;;;;;;7.70;5.80;;;;;;;-3.09;76.54;97584.45;110307;1240;59680;-69
2023/03/29 05:15:52;;;;;;;6.20;5.60;;;;;;;-3.14;75.70;97585.91;110279;1241;59671;-69
2023/03/29 05:18:21;;;;;;;7.00;5.60;;;;;;;-3.18;75.62;97590.40;110233;1240;71777;-69
2023/03/29 05:20:52;;;;;;;7.40;5.40;;;;;;;-3.21;75.62;97586.86;110430;1244;70537;-70
2023/03/29 05:23:22;;;;;;;6.00;5.20;;;;;;;-3.18;75.28;97588.70;110314;1239;68280;-68
2023/03/29 05:26:13;;;;;;;7.70;5.30;;;;;;;-3.12;75.05;97585.54;110205;1239;60192;-69
2023/03/29 05:28:43;;;;;;;7.60;5.20;;;;;;;-3.13;74.60;97587.25;110207;1243;59711;-68
2023/03/29 05:31:12;;;;;;;7.70;3.80;;;;;;;-3.04;74.13;97590.02;110204;1241;71966;-69
2023/03/29 05:33:49;;;;;;;4.90;4.10;;;;;;;-3.02;73.88;97590.15;110232;1242;69395;-70
2023/03/29 05:36:18;;;;;;;7.60;5.30;;;;;;;-2.91;73.74;97593.38;110248;1241;69837;-70
2023/03/29 05:38:50;;;;;;;5.40;4.90;;;;;;;-2.83;73.86;97598.88;110126;1243;59770;-70
2023/03/29 05:41:22;;;;;;;8.50;5.40;;;;;;;-2.78;73.49;97599.83;110356;1238;59749;-70
2023/03/29 05:44:10;;;;;;;5.20;4.60;;;;;;;-2.90;72.70;97594.38;110439;1240;70731;-70
2023/03/29 05:46:41;;;;;;;8.80;5.40;;;;;;;-2.89;72.91;97593.52;109909;1240;68731;-70
2023/03/29 05:49:13;;;;;;;4.90;4.10;;;;;;;-2.82;72.69;97599.70;110138;1240;69840;-70
2023/03/29 05:52:02;;;;;;;6.80;4.70;;;;;;;-2.92;71.46;97600.90;110146;1242;59689;-70
2023/03/29 05:54:32;;;;;;;6.00;5.40;;;;;;;-2.82;72.14;97609.43;110167;1240;59687;-70
2023/03/29 05:57:01;;;;;;;5.60;4.80;;;;;;;-2.76;71.45;97608.33;110287;1242;71354;-71
2023/03/29 05:59:32;;;;;;;7.70;4.80;;;;;;;-2.70;70.97;97611.96;110296;1243;68546;-70
2023/03/29 06:02:04;;;;;;;7.30;5.10;;;;;;;-2.54;70.76;97615.96;110115;1241;68936;-70
2023/03/29 06:04:35;;;;;;;6.80;5.10;;;;;;;-2.29;70.68;97618.59;110006;1241;59758;-70
2023/03/29 06:07:23;;;;;;;5.90;4.40;;;;;;;-1.72;69.35;97621.74;110173;1243;59642;-71
2023/03/29 06:10:11;;;;;;;5.50;4.70;;;;;;;-1.15;66.96;97622.90;110144;1240;71394;-71
2023/03/29 06:12:43;;;;;;;4.90;4.40;;;;;;;-0.91;66.13;97629.88;110168;1242;69724;-71
2023/03/29 06:15:13;;;;;;;5.80;4.70;;;;;;;-0.90;64.21;97627.11;110145;1240;69301;-70
2023/03/29 06:17:49;;;;;;;5.60;4.10;;;;;;;-0.50;63.36;97627.16;110133;1245;59679;-70
2023/03/29 06:20:18;;;;;;;4.30;3.90;;;;;;;0.02;62.67;97626.99;110224;1240;59710;-70
2023/03/29 06:22:51;;;;;;;5.20;3.80;;;;;;;0.40;61.50;97627.14;110181;1240;70907;-71
2023/03/29 06:25:20;;;;;;;7.10;3.50;;;;;;;0.66;60.70;97632.71;110149;1244;69133;-71
2023/03/29 06:27:51;;;;;;;4.50;3.90;;;;;;;0.70;59.42;97629.15;110196;1243;69695;-71
2023/03/29 06:30:20;;;;;;;4.10;3.50;;;;;;;0.77;59.08;97636.69;110200;1240;59752;-70
2023/03/29 06:32:51;;;;;;;5.50;3.80;;;;;;;1.12;58.74;97635.79;110158;1243;59634;-70
2023/03/29 06:35:42;;;;;;;5.60;4.20;;;;;;;1.32;57.50;97637.02;110035;1240;71583;-70
2023/03/29 06:38:15;;;;;;;4.90;3.60;;;;;;;1.51;56.21;97629.70;110204;1240;68593;-71
2023/03/29 06:41:09;;;;;;;4.10;3.50;;;;;;;1.59;54.96;97645.06;109849;1240;69726;-71
2023/03/29 06:43:59;;;;;;;4.50;3.60;;;;;;;2.01;55.43;97647.25;110016;1240;59751;-70
2023/03/29 06:46:33;;;;;;;3.90;3.40;;;;;;;2.46;54.11;97646.86;110158;1242;59653;-70
2023/03/29 06:49:06;;;;;;;4.80;3.90;;;;;;;2.64;52.36;97651.71;109903;1241;400141;-69
2023/03/29 06:51:42;;;;;;;4.90;3.60;;;;;;;3.05;50.90;97653.58;110172;1240;69994;-70
2023/03/29 06:54:12;;;;;;;4.00;3.50;;;;;;;3.13;50.62;97654.80;110272;1243;68498;-69
2023/03/29 06:56:48;;;;;;;4.20;3.20;;;;;;;3.48;49.52;97658.23;110214;1242;59731;-70
2023/03/29 06:59:20;;;;;;;4.30;3.10;;;;;;;3.70;47.90;97656.83;110322;1241;59688;-70
2023/03/29 07:01:57;;;;;;;4.70;3.50;;;;;;;3.91;46.97;97659.92;110292;1240;71581;-70
2023/03/29 07:04:46;;;;;;;4.30;3.10;;;;;;;3.97;45.84;97666.58;110162;1241;69842;-70
2023/03/29 07:07:26;;;;;;;4.00;3.10;;;;;;;3.92;44.24;97657.12;110238;1241;69174;-70
2023/03/29 07:10:06;;;;;;;3.90;3.20;;;;;;;3.82;44.82;97672.35;110145;1242;59663;-70
2023/03/29 07:12:59;;;;;;;3.40;3.00;;;;;;;3.96;45.37;97674.00;109908;1244;59675;-70
2023/03/29 07:15:29;;;;;;;4.10;3.30;;;;;;;4.56;44.59;97671.94;110157;1243;69656;-69
2023/03/29 07:18:17;;;;;;;3.20;2.60;;;;;;;4.99;44.29;97683.63;110116;1242;69242;-70
2023/03/29 07:20:47;;;;;;;4.40;3.00;;;;;;;5.15;42.60;97678.92;110270;1241;69934;-69
2023/03/29 07:23:17;;;;;;;3.70;2.80;;;;;;;5.06;42.16;97685.77;110108;1243;59741;-71
2023/03/29 07:25:46;;;;;;;4.40;2.80;;;;;;;4.41;42.18;97689.36;110245;1241;59645;-70
2023/03/29 07:28:15;;;;;;;5.90;2.80;;;;;;;4.19;42.70;97689.61;111028;1239;72463;-69
2023/03/29 07:30:45;;;;;;;3.40;3.00;;;;;;;4.39;42.75;97690.48;111194;1239;69514;-70
2023/03/29 07:33:17;;;;;;;5.20;2.70;;;;;;;4.58;42.77;97683.79;110327;1241;70120;-70
2023/03/29 07:35:52;;;;;;;3.30;2.90;;;;;;;3.96;42.02;97695.67;110217;1247;59729;-70
2023/03/29 07:38:21;;;;;;;3.50;2.80;;;;;;;3.03;42.51;97696.46;110135;1243;59653;-69
2023/03/29 07:40:58;;;;;;;3.00;2.70;;;;;;;2.15;43.06;97707.45;110116;1240;70947;-70
2023/03/29 07:43:34;;;;;;;5.50;3.10;;;;;;;2.21;43.84;97712.06;110141;1242;69943;-70
2023/03/29 07:46:04;;;;;;;3.00;2.40;;;;;;;1.83;43.97;97716.61;110157;1245;69106;-69
2023/03/29 07:48:35;;;;;;;3.70;3.00;;;;;;;1.62;44.52;97719.70;110189;1242;59734;-69
2023/03/29 07:51:07;;;;;;;3.30;2.70;;;;;;;1.58;44.89;97721.89;110249;1241;59674;-70
2023/03/29 07:53:58;;;;;;;3.50;2.70;;;;;;;1.25;45.83;97722.92;110215;1240;71168;-70
2023/03/29 07:56:48;;;;;;;4.00;3.10;;;;;;;1.16;47.00;97719.41;110129;1241;68841;-69
2023/03/29 07:59:20;;;;;;;3.90;3.00;;;;;;;1.02;47.50;97718.81;110107;1242;69160;-70
2023/03/29 08:02:04;;;;;;;4.80;3.50;;;;;;;0.94;47.90;97719.41;110110;1243;59661;-70
2023/03/29 08:04:38;;;;;;;3.40;2.90;;;;;;;1.07;47.44;97720.73;110130;1240;59689;-69
2023/03/29 08:07:28;;;;;;;4.30;3.00;;;;;;;1.04;46.27;97720.50;110094;1240;71010;-69
2023/03/29 08:10:18;;;;;;;4.40;3.30;;;;;;;0.86;46.56;97719.98;110064;1244;68835;-70
2023/03/29 08:13:14;;;;;;;4.10;2.80;;;;;;;0.56;47.46;97723.56;110145;1241;70090;-70
2023/03/29 08:16:04;;;;;;;4.00;3.10;;;;;;;0.39;47.90;97724.02;110074;1240;59683;-70
2023/03/29 08:18:37;;;;;;;3.80;3.10;;;;;;;0.33;48.67;97725.41;110180;1243;59633;-70
2023/03/29 08:21:07;;;;;;;5.80;4.10;;;;;;;0.22;49.56;97731.88;110113;1240;71345;-70
2023/03/29 08:23:36;;;;;;;5.60;4.00;;;;;;;0.19;50.82;97738.30;110110;1241;68749;-69
2023/03/29 08:26:14;;;;;;;6.00;4.60;;;;;;;0.01;53.67;97744.92;110127;1243;69288;-70
2023/03/29 08:28:44;;;;;;;5.80;4.40;;;;;;;-0.43;57.00;97740.01;110256;1241;59697;-69
2023/03/29 08:31:14;;;;;;;5.60;5.00;;;;;;;-0.79;59.57;97746.81;110202;1242;60087;-69
2023/03/29 08:33:43;;;;;;;5.60;4.50;;;;;;;-0.86;60.15;97747.48;110230;1241;71960;-69
2023/03/29 08:36:32;;;;;;;5.20;4.70;;;;;;;-0.73;60.72;97755.25;109897;1244;68730;-69
2023/03/29 08:39:06;;;;;;;5.40;4.10;;;;;;;-0.67;60.25;97749.48;110354;1241;69853;-69
2023/03/29 08:42:01;;;;;;;4.50;4.10;;;;;;;-0.59;59.48;97752.35;110141;1243;59754;-70
2023/03/29 08:44:49;;;;;;;6.60;4.70;;;;;;;-0.41;60.12;97750.07;110164;1242;59660;-70
2023/03/29 08:47:28;;;;;;;5.60;4.00;;;;;;;-0.38;60.14;97754.27;110170;1241;71345;-70
2023/03/29 08:49:58;;;;;;;5.80;5.20;;;;;;;-0.65;61.32;97756.77;110179;1242;70070;-68
2023/03/29 08:52:55;;;;;;;6.20;4.80;;;;;;;-0.48;59.12;97759.64;110221;1240;69011;-69
2023/03/29 08:55:45;;;;;;;4.80;4.00;;;;;;;-0.44;58.11;97760.76;110170;1244;59754;-70
2023/03/29 08:58:27;;;;;;;6.70;4.50;;;;;;;-0.39;58.59;97762.35;110181;1242;59662;-70
2023/03/29 09:01:00;;;;;;;5.00;4.50;;;;;;;-0.36;58.68;97757.66;110093;1244;71980;-71
2023/03/29 09:03:48;;;;;;;5.20;4.20;;;;;;;-0.29;57.65;97751.98;110333;1241;69369;-70
2023/03/29 09:06:26;;;;;;;5.90;4.90;;;;;;;-0.26;57.58;97761.52;110189;1242;69677;-69
2023/03/29 09:09:00;;;;;;;6.20;4.40;;;;;;;-0.03;57.27;97756.48;110331;1241;59726;-69
2023/03/29 09:11:31;;;;;;;5.70;4.10;;;;;;;0.65;55.21;97745.27;110298;1241;59745;-69
2023/03/29 09:14:22;;;;;;;5.10;3.60;;;;;;;1.73;55.05;97747.02;110210;1240;71680;-70
2023/03/29 09:17:22;;;;;;;5.70;4.00;;;;;;;2.52;50.97;97746.77;110304;1241;68544;-70
2023/03/29 09:20:20;;;;;;;4.30;3.40;;;;;;;2.74;47.17;97743.73;110223;1241;69177;-70
2023/03/29 09:23:29;;;;;;;4.00;3.30;;;;;;;2.87;46.39;97746.55;110098;1242;59852;-70
2023/03/29 09:26:53;;;;;;;3.10;2.30;;;;;;;4.10;44.97;97747.09;109816;1248;59627;-70
2023/03/29 09:30:00;;;;;;;3.90;3.10;;;;;;;4.38;41.56;97744.73;110308;1241;70985;-71
2023/03/29 09:32:51;;;;;;;3.90;2.80;;;;;;;3.90;41.21;97746.86;110107;1244;69638;-70
2023/03/29 09:35:33;;;;;;;3.20;2.90;;;;;;;3.40;40.94;97748.35;110137;1244;69132;-70
2023/03/29 09:38:06;;;;;;;3.10;2.80;;;;;;;2.89;41.96;97750.77;110164;1240;59702;-70
2023/03/29 09:40:45;;;;;;;3.40;2.80;;;;;;;2.72;42.91;97751.91;110094;1244;59723;-70
2023/03/29 09:43:36;;;;;;;4.10;2.90;;;;;;;2.54;43.47;97748.08;110192;1243;70352;-70
2023/03/29 09:46:43;;;;;;;3.90;2.60;;;;;;;2.43;42.76;97755.14;110273;1241;69320;-70
2023/03/29 09:49:18;;;;;;;3.90;2.50;;;;;;;2.09;42.74;97763.73;109843;1240;69289;-70
2023/03/29 09:51:48;;;;;;;3.90;3.30;;;;;;;1.85;42.24;97759.52;110289;1241;59678;-70
2023/03/29 09:54:17;;;;;;;3.40;3.00;;;;;;;1.60;42.79;97756.20;110217;1243;59739;-70
2023/03/29 09:57:07;;;;;;;3.30;2.80;;;;;;;1.51;43.11;97749.61;110224;1241;72258;-70
2023/03/29 09:59:36;;;;;;;4.30;2.90;;;;;;;1.00;43.70;97754.07;110333;1241;68525;-70
2023/03/29 10:02:10;;;;;;;4.50;2.90;;;;;;;1.06;45.17;97758.34;110243;1241;69254;-70
2023/03/29 10:04:41;;;;;;;4.10;3.30;;;;;;;1.08;45.74;97757.43;110278;1239;60201;-70
2023/03/29 10:07:17;;;;;;;4.80;3.30;;;;;;;1.01;45.55;97765.89;110138;1244;59696;-70
2023/03/29 10:09:51;;;;;;;3.20;2.90;;;;;;;0.93;45.11;97759.26;110158;1244;71770;-71
2023/03/29 10:12:21;;;;;;;3.50;3.00;;;;;;;0.99;44.85;97762.33;110185;1240;69810;-70
2023/03/29 10:14:53;;;;;;;4.10;3.10;;;;;;;1.09;46.50;97761.71;110172;1240;68339;-70
2023/03/29 10:17:26;;;;;;;4.10;3.10;;;;;;;1.36;46.39;97764.16;110204;1243;59673;-70
2023/03/29 10:20:00;;;;;;;3.90;3.40;;;;;;;1.58;46.43;97765.36;110356;1241;59672;-70
2023/03/29 10:22:40;;;;;;;3.80;3.10;;;;;;;1.67;44.87;97766.13;110368;1241;71766;-69
2023/03/29 10:25:14;;;;;;;3.90;2.80;;;;;;;2.06;43.47;97766.89;110296;1241;69813;-70
2023/03/29 10:27:45;;;;;;;3.30;2.60;;;;;;;2.46;42.56;97749.73;110374;1240;69289;-69
2023/03/29 10:30:21;;;;;;;3.40;2.40;;;;;;;2.70;42.49;97753.69;110457;1241;59740;-70
2023/03/29 10:32:58;;;;;;;3.30;2.80;;;;;;;3.24;42.57;97762.06;110351;1240;59687;-69
2023/03/29 10:35:32;;;;;;;3.50;2.20;;;;;;;3.80;40.34;97761.08;110305;1241;70437;-70
2023/03/29 10:38:05;;;;;;;3.60;2.60;;;;;;;4.20;39.33;97766.86;110388;1241;69643;-69
2023/03/29 10:40:42;;;;;;;2.40;2.20;;;;;;;5.03;39.44;97756.36;110248;1241;69196;-70
2023/03/29 10:43:16;;;;;;;2.20;2.00;;;;;;;5.82;37.25;97756.83;110128;1245;59752;-70
2023/03/29 10:45:50;;;;;;;3.10;2.20;;;;;;;6.62;35.35;97750.30;110294;1240;59711;-70
2023/03/29 10:48:27;;;;;;;3.30;2.30;;;;;;;6.83;35.06;97751.09;110322;1247;71150;-70
2023/03/29 10:51:00;;;;;;;5.20;2.20;;;;;;;6.29;33.85;97749.86;110329;1241;69064;-71
2023/03/29 10:53:35;;;;;;;3.30;2.50;;;;;;;6.20;35.64;97757.60;110358;1240;68494;-70
2023/03/29 10:56:35;;;;;;;3.70;2.50;;;;;;;6.08;35.04;97759.91;110243;1239;59666;-70
2023/03/29 10:59:08;;;;;;;3.10;2.60;;;;;;;5.61;35.34;97757.46;110274;1242;59635;-70
2023/03/29 11:02:22;;;;;;;3.30;2.40;;;;;;;5.24;35.70;97757.48;110162;1245;71980;-70
2023/03/29 11:05:08;;;;;;;3.30;2.60;;;;;;;5.50;35.17;97756.10;110321;1241;69855;-70
2023/03/29 11:08:04;;;;;;;2.60;2.30;;;;;;;6.03;35.39;97745.08;110360;1241;69292;-70
2023/03/29 11:11:01;;;;;;;3.00;2.40;;;;;;;6.06;33.73;97730.73;110344;1244;59709;-70
2023/03/29 11:14:04;;;;;;;2.40;2.20;;;;;;;5.96;34.45;97738.54;110382;1241;59735;-68
2023/03/29 11:16:45;;;;;;;3.20;2.50;;;;;;;5.30;34.43;97735.43;110353;1241;71951;-71
2023/03/29 11:19:41;;;;;;;3.00;2.30;;;;;;;4.91;35.36;97725.83;110368;1242;69258;-70
2023/03/29 11:22:18;;;;;;;2.70;2.30;;;;;;;3.94;36.77;97734.45;110357;1241;69441;-70
2023/03/29 11:25:23;;;;;;;2.90;2.40;;;;;;;3.52;37.28;97729.45;110328;1240;59745;-71
2023/03/29 11:28:29;;;;;;;2.90;2.50;;;;;;;3.52;37.35;97734.61;110179;1241;59678;-70
2023/03/29 11:31:08;;;;;;;3.10;2.50;;;;;;;4.68;37.51;97724.05;110292;1241;71804;-69
2023/03/29 11:33:56;;;;;;;2.80;2.00;;;;;;;6.08;34.70;97714.55;110154;1242;69245;-71
2023/03/29 11:36:37;;;;;;;2.20;2.00;;;;;;;6.98;32.55;97708.02;110159;1241;69156;-71
2023/03/29 11:39:23;;;;;;;3.40;2.20;;;;;;;8.04;31.69;97700.19;110340;1242;59715;-71
2023/03/29 11:41:57;;;;;;;3.70;2.80;;;;;;;9.19;31.45;97691.41;110269;1242;59690;-72
2023/03/29 11:44:29;;;;;;;3.20;2.10;;;;;;;9.10;30.40;97698.76;110473;1242;71224;-71
2023/03/29 11:47:07;;;;;;;3.50;2.40;;;;;;;8.75;31.14;97698.61;110391;1242;69666;-71
2023/03/29 11:50:06;;;;;;;3.60;2.70;;;;;;;8.07;31.07;97707.48;110353;1241;69677;-71
2023/03/29 11:52:47;;;;;;;3.20;2.10;;;;;;;8.44;30.57;97699.27;110100;1240;59754;-71
2023/03/29 11:55:30;;;;;;;2.20;1.80;;;;;;;9.18;29.49;97692.35;110369;1241;59636;-70
2023/03/29 11:58:15;;;;;;;2.70;2.00;;;;;;;9.07;29.36;97688.98;110409;1241;72004;-70
2023/03/29 12:00:59;;;;;;;3.10;2.00;;;;;;;10.19;29.27;97691.33;110333;1241;69858;-70
2023/03/29 12:03:47;;;;;;;2.50;1.80;;;;;;;10.82;27.48;97688.80;110331;1239;69646;-69
2023/03/29 12:06:45;;;;;;;2.60;1.80;;;;;;;10.91;26.32;97687.31;110236;1240;59678;-71
2023/03/29 12:09:29;;;;;;;2.70;2.20;;;;;;;10.24;26.05;97689.61;109617;1249;59678;-71
2023/03/29 12:12:28;;;;;;;3.20;2.20;;;;;;;9.67;26.96;97696.34;110303;1242;71958;-71
2023/03/29 12:15:06;;;;;;;3.00;2.20;;;;;;;8.70;29.18;97698.07;110287;1241;69832;-70
2023/03/29 12:17:50;;;;;;;2.90;2.20;;;;;;;8.45;29.29;97699.03;110362;1241;69214;-71
2023/03/29 12:20:32;;;;;;;2.40;1.80;;;;;;;8.09;30.02;97697.50;110267;1240;59693;-70